sensor_id;sensor_type;location;lat;lon;timestamp;P1;durP1;ratioP1;P2;durP2;ratioP2
14510;SDS011;7341;50.930;4.038;2023-02-23T00:01:49;99.50;;;46.50;;
14510;SDS011;7341;50.930;4.038;2023-02-23T00:04:16;98.40;;;47.03;;
14510;SDS011;7341;50.930;4.038;2023-02-23T00:06:43;109.43;;;49.43;;
14510;SDS011;7341;50.930;4.038;2023-02-23T00:09:12;98.97;;;47.87;;
14510;SDS011;7341;50.930;4.038;2023-02-23T00:11:47;99.30;;;48.00;;
14510;SDS011;7341;50.930;4.038;2023-02-23T00:14:14;101.57;;;45.87;;
14510;SDS011;7341;50.930;4.038;2023-02-23T00:16:41;104.60;;;46.87;;
14510;SDS011;7341;50.930;4.038;2023-02-23T00:19:09;103.57;;;47.00;;
14510;SDS011;7341;50.930;4.038;2023-02-23T00:21:39;110.10;;;47.70;;
14510;SDS011;7341;50.930;4.038;2023-02-23T00:24:09;106.03;;;46.33;;
14510;SDS011;7341;50.930;4.038;2023-02-23T00:26:38;108.00;;;46.33;;
14510;SDS011;7341;50.930;4.038;2023-02-23T00:29:07;99.20;;;44.47;;
14510;SDS011;7341;50.930;4.038;2023-02-23T00:31:37;100.90;;;43.60;;
14510;SDS011;7341;50.930;4.038;2023-02-23T00:36:37;106.60;;;44.60;;
14510;SDS011;7341;50.930;4.038;2023-02-23T00:39:05;96.10;;;41.83;;
14510;SDS011;7341;50.930;4.038;2023-02-23T00:44:14;103.50;;;40.90;;
14510;SDS011;7341;50.930;4.038;2023-02-23T00:46:41;97.50;;;41.90;;
14510;SDS011;7341;50.930;4.038;2023-02-23T00:49:10;95.03;;;41.93;;
14510;SDS011;7341;50.930;4.038;2023-02-23T00:51:38;102.83;;;41.67;;
14510;SDS011;7341;50.930;4.038;2023-02-23T00:54:06;98.70;;;42.43;;
14510;SDS011;7341;50.930;4.038;2023-02-23T00:56:33;106.13;;;42.97;;
14510;SDS011;7341;50.930;4.038;2023-02-23T00:59:01;100.30;;;40.67;;
14510;SDS011;7341;50.930;4.038;2023-02-23T01:01:28;94.07;;;41.63;;
14510;SDS011;7341;50.930;4.038;2023-02-23T01:03:55;98.43;;;41.70;;
14510;SDS011;7341;50.930;4.038;2023-02-23T01:06:22;91.40;;;40.03;;
14510;SDS011;7341;50.930;4.038;2023-02-23T01:08:49;101.80;;;41.70;;
14510;SDS011;7341;50.930;4.038;2023-02-23T01:11:21;97.40;;;40.07;;
14510;SDS011;7341;50.930;4.038;2023-02-23T01:13:53;89.90;;;39.73;;
14510;SDS011;7341;50.930;4.038;2023-02-23T01:16:24;96.50;;;41.10;;
14510;SDS011;7341;50.930;4.038;2023-02-23T01:18:56;90.80;;;39.23;;
14510;SDS011;7341;50.930;4.038;2023-02-23T01:21:25;96.90;;;40.43;;
14510;SDS011;7341;50.930;4.038;2023-02-23T01:23:53;95.40;;;39.93;;
14510;SDS011;7341;50.930;4.038;2023-02-23T01:26:23;95.33;;;40.20;;
14510;SDS011;7341;50.930;4.038;2023-02-23T01:28:52;99.47;;;40.93;;
14510;SDS011;7341;50.930;4.038;2023-02-23T01:31:20;96.07;;;40.90;;
14510;SDS011;7341;50.930;4.038;2023-02-23T01:33:52;90.67;;;39.83;;
14510;SDS011;7341;50.930;4.038;2023-02-23T01:36:20;100.73;;;40.80;;
14510;SDS011;7341;50.930;4.038;2023-02-23T01:38:48;99.10;;;40.03;;
14510;SDS011;7341;50.930;4.038;2023-02-23T01:41:15;98.23;;;40.70;;
14510;SDS011;7341;50.930;4.038;2023-02-23T01:44:00;126.07;;;58.55;;
14510;SDS011;7341;50.930;4.038;2023-02-23T01:46:29;110.17;;;44.67;;
14510;SDS011;7341;50.930;4.038;2023-02-23T01:48:59;105.20;;;43.17;;
14510;SDS011;7341;50.930;4.038;2023-02-23T01:51:28;102.13;;;41.03;;
14510;SDS011;7341;50.930;4.038;2023-02-23T01:54:00;95.93;;;39.70;;
14510;SDS011;7341;50.930;4.038;2023-02-23T01:56:32;91.17;;;41.33;;
14510;SDS011;7341;50.930;4.038;2023-02-23T01:59:02;97.23;;;40.27;;
14510;SDS011;7341;50.930;4.038;2023-02-23T02:01:32;93.23;;;40.17;;
14510;SDS011;7341;50.930;4.038;2023-02-23T02:04:03;95.97;;;40.60;;
14510;SDS011;7341;50.930;4.038;2023-02-23T02:06:34;86.13;;;38.87;;
14510;SDS011;7341;50.930;4.038;2023-02-23T02:09:04;89.27;;;39.73;;
14510;SDS011;7341;50.930;4.038;2023-02-23T02:11:34;110.15;;;52.72;;
14510;SDS011;7341;50.930;4.038;2023-02-23T02:14:03;92.97;;;42.27;;
14510;SDS011;7341;50.930;4.038;2023-02-23T02:16:46;97.80;;;42.37;;
14510;SDS011;7341;50.930;4.038;2023-02-23T02:19:47;89.93;;;39.53;;
14510;SDS011;7341;50.930;4.038;2023-02-23T02:22:33;101.50;;;39.57;;
14510;SDS011;7341;50.930;4.038;2023-02-23T02:28:12;93.97;;;42.57;;
14510;SDS011;7341;50.930;4.038;2023-02-23T02:31:14;92.80;;;40.70;;
14510;SDS011;7341;50.930;4.038;2023-02-23T02:40:26;120.70;;;53.53;;
14510;SDS011;7341;50.930;4.038;2023-02-23T02:43:00;106.47;;;45.93;;
14510;SDS011;7341;50.930;4.038;2023-02-23T02:45:40;103.70;;;43.73;;
14510;SDS011;7341;50.930;4.038;2023-02-23T02:48:19;99.93;;;44.30;;
14510;SDS011;7341;50.930;4.038;2023-02-23T02:50:56;94.10;;;42.40;;
14510;SDS011;7341;50.930;4.038;2023-02-23T02:53:30;101.60;;;44.13;;
14510;SDS011;7341;50.930;4.038;2023-02-23T02:56:07;100.20;;;43.37;;
14510;SDS011;7341;50.930;4.038;2023-02-23T02:58:36;103.17;;;43.53;;
14510;SDS011;7341;50.930;4.038;2023-02-23T03:01:11;99.40;;;46.50;;
14510;SDS011;7341;50.930;4.038;2023-02-23T03:03:56;100.77;;;44.57;;
14510;SDS011;7341;50.930;4.038;2023-02-23T03:06:44;107.53;;;44.87;;
14510;SDS011;7341;50.930;4.038;2023-02-23T03:09:33;100.97;;;42.83;;
14510;SDS011;7341;50.930;4.038;2023-02-23T03:12:28;97.17;;;43.33;;
14510;SDS011;7341;50.930;4.038;2023-02-23T03:15:23;104.37;;;42.97;;
14510;SDS011;7341;50.930;4.038;2023-02-23T03:18:24;106.30;;;43.03;;
14510;SDS011;7341;50.930;4.038;2023-02-23T03:21:24;99.40;;;43.77;;
14510;SDS011;7341;50.930;4.038;2023-02-23T03:24:15;92.33;;;41.37;;
14510;SDS011;7341;50.930;4.038;2023-02-23T03:27:09;97.73;;;42.70;;
14510;SDS011;7341;50.930;4.038;2023-02-23T03:30:05;95.47;;;43.33;;
14510;SDS011;7341;50.930;4.038;2023-02-23T03:32:59;94.60;;;43.07;;
14510;SDS011;7341;50.930;4.038;2023-02-23T03:35:49;94.67;;;41.53;;
14510;SDS011;7341;50.930;4.038;2023-02-23T03:38:37;114.45;;;60.60;;
14510;SDS011;7341;50.930;4.038;2023-02-23T03:41:26;95.53;;;44.67;;
14510;SDS011;7341;50.930;4.038;2023-02-23T03:44:14;93.50;;;41.80;;
14510;SDS011;7341;50.930;4.038;2023-02-23T03:47:04;84.23;;;41.37;;
14510;SDS011;7341;50.930;4.038;2023-02-23T03:49:52;91.73;;;41.40;;
14510;SDS011;7341;50.930;4.038;2023-02-23T03:52:39;94.53;;;43.53;;
14510;SDS011;7341;50.930;4.038;2023-02-23T03:55:29;95.77;;;41.37;;
14510;SDS011;7341;50.930;4.038;2023-02-23T03:58:17;94.60;;;42.23;;
14510;SDS011;7341;50.930;4.038;2023-02-23T04:01:06;87.20;;;40.27;;
14510;SDS011;7341;50.930;4.038;2023-02-23T04:03:54;90.50;;;40.83;;
14510;SDS011;7341;50.930;4.038;2023-02-23T04:06:42;87.43;;;42.13;;
14510;SDS011;7341;50.930;4.038;2023-02-23T04:09:29;91.63;;;41.57;;
14510;SDS011;7341;50.930;4.038;2023-02-23T04:12:14;101.93;;;43.23;;
14510;SDS011;7341;50.930;4.038;2023-02-23T04:15:03;89.17;;;40.20;;
14510;SDS011;7341;50.930;4.038;2023-02-23T04:17:34;92.80;;;40.63;;
14510;SDS011;7341;50.930;4.038;2023-02-23T04:20:04;85.03;;;40.23;;
14510;SDS011;7341;50.930;4.038;2023-02-23T04:22:31;91.00;;;40.50;;
14510;SDS011;7341;50.930;4.038;2023-02-23T04:25:00;90.37;;;40.67;;
14510;SDS011;7341;50.930;4.038;2023-02-23T04:27:27;90.83;;;42.23;;
14510;SDS011;7341;50.930;4.038;2023-02-23T04:29:54;81.83;;;38.93;;
14510;SDS011;7341;50.930;4.038;2023-02-23T04:32:22;88.37;;;41.27;;
14510;SDS011;7341;50.930;4.038;2023-02-23T04:34:49;91.47;;;41.43;;
14510;SDS011;7341;50.930;4.038;2023-02-23T04:37:17;93.17;;;41.90;;
14510;SDS011;7341;50.930;4.038;2023-02-23T04:39:44;100.37;;;43.97;;
14510;SDS011;7341;50.930;4.038;2023-02-23T04:42:14;98.83;;;43.23;;
14510;SDS011;7341;50.930;4.038;2023-02-23T04:44:41;98.13;;;43.80;;
14510;SDS011;7341;50.930;4.038;2023-02-23T04:47:13;98.97;;;45.03;;
14510;SDS011;7341;50.930;4.038;2023-02-23T04:49:41;99.33;;;43.47;;
14510;SDS011;7341;50.930;4.038;2023-02-23T04:52:08;97.53;;;44.27;;
14510;SDS011;7341;50.930;4.038;2023-02-23T04:54:37;95.63;;;42.83;;
14510;SDS011;7341;50.930;4.038;2023-02-23T04:57:04;96.00;;;42.57;;
14510;SDS011;7341;50.930;4.038;2023-02-23T04:59:32;94.83;;;43.67;;
14510;SDS011;7341;50.930;4.038;2023-02-23T05:02:00;96.30;;;43.87;;
14510;SDS011;7341;50.930;4.038;2023-02-23T05:04:27;97.37;;;44.27;;
14510;SDS011;7341;50.930;4.038;2023-02-23T05:06:54;96.90;;;44.63;;
14510;SDS011;7341;50.930;4.038;2023-02-23T05:09:22;91.13;;;43.53;;
14510;SDS011;7341;50.930;4.038;2023-02-23T05:11:51;99.67;;;43.90;;
14510;SDS011;7341;50.930;4.038;2023-02-23T05:14:18;90.97;;;43.07;;
14510;SDS011;7341;50.930;4.038;2023-02-23T05:16:46;99.87;;;44.47;;
14510;SDS011;7341;50.930;4.038;2023-02-23T05:19:13;103.20;;;44.53;;
14510;SDS011;7341;50.930;4.038;2023-02-23T05:21:39;94.27;;;41.13;;
14510;SDS011;7341;50.930;4.038;2023-02-23T05:24:07;96.63;;;43.93;;
14510;SDS011;7341;50.930;4.038;2023-02-23T05:26:34;98.53;;;43.87;;
14510;SDS011;7341;50.930;4.038;2023-02-23T05:29:02;99.93;;;44.47;;
14510;SDS011;7341;50.930;4.038;2023-02-23T05:31:30;99.33;;;42.77;;
14510;SDS011;7341;50.930;4.038;2023-02-23T05:33:57;93.63;;;43.47;;
14510;SDS011;7341;50.930;4.038;2023-02-23T05:36:28;90.90;;;41.03;;
14510;SDS011;7341;50.930;4.038;2023-02-23T05:38:55;94.13;;;42.53;;
14510;SDS011;7341;50.930;4.038;2023-02-23T05:41:22;96.03;;;41.53;;
14510;SDS011;7341;50.930;4.038;2023-02-23T05:43:50;91.57;;;41.90;;
14510;SDS011;7341;50.930;4.038;2023-02-23T05:46:19;96.43;;;42.70;;
14510;SDS011;7341;50.930;4.038;2023-02-23T05:48:49;89.60;;;41.87;;
14510;SDS011;7341;50.930;4.038;2023-02-23T05:51:17;88.13;;;42.73;;
14510;SDS011;7341;50.930;4.038;2023-02-23T05:53:44;90.80;;;40.57;;
14510;SDS011;7341;50.930;4.038;2023-02-23T05:56:13;96.43;;;43.40;;
14510;SDS011;7341;50.930;4.038;2023-02-23T05:58:45;88.47;;;41.97;;
14510;SDS011;7341;50.930;4.038;2023-02-23T06:01:12;89.03;;;41.87;;
14510;SDS011;7341;50.930;4.038;2023-02-23T06:03:41;95.90;;;42.93;;
14510;SDS011;7341;50.930;4.038;2023-02-23T06:06:09;91.33;;;40.87;;
14510;SDS011;7341;50.930;4.038;2023-02-23T06:08:36;93.37;;;41.60;;
14510;SDS011;7341;50.930;4.038;2023-02-23T06:11:03;91.87;;;41.43;;
14510;SDS011;7341;50.930;4.038;2023-02-23T06:13:30;85.50;;;43.00;;
14510;SDS011;7341;50.930;4.038;2023-02-23T06:15:57;90.70;;;41.03;;
14510;SDS011;7341;50.930;4.038;2023-02-23T06:18:25;84.73;;;40.87;;
14510;SDS011;7341;50.930;4.038;2023-02-23T06:20:54;82.07;;;41.50;;
14510;SDS011;7341;50.930;4.038;2023-02-23T06:23:23;88.90;;;40.43;;
14510;SDS011;7341;50.930;4.038;2023-02-23T06:25:50;84.80;;;41.23;;
14510;SDS011;7341;50.930;4.038;2023-02-23T06:28:17;81.27;;;39.30;;
14510;SDS011;7341;50.930;4.038;2023-02-23T06:30:44;82.07;;;39.03;;
14510;SDS011;7341;50.930;4.038;2023-02-23T06:33:12;85.20;;;39.17;;
14510;SDS011;7341;50.930;4.038;2023-02-23T06:35:39;86.10;;;41.77;;
14510;SDS011;7341;50.930;4.038;2023-02-23T06:38:07;89.07;;;42.00;;
14510;SDS011;7341;50.930;4.038;2023-02-23T06:40:34;87.27;;;40.83;;
14510;SDS011;7341;50.930;4.038;2023-02-23T06:43:03;85.80;;;42.07;;
14510;SDS011;7341;50.930;4.038;2023-02-23T06:45:30;98.53;;;45.30;;
14510;SDS011;7341;50.930;4.038;2023-02-23T06:47:57;92.80;;;43.50;;
14510;SDS011;7341;50.930;4.038;2023-02-23T06:50:24;93.87;;;43.73;;
14510;SDS011;7341;50.930;4.038;2023-02-23T06:52:51;99.77;;;45.87;;
14510;SDS011;7341;50.930;4.038;2023-02-23T06:55:20;96.23;;;45.73;;
14510;SDS011;7341;50.930;4.038;2023-02-23T06:57:47;99.67;;;45.20;;
14510;SDS011;7341;50.930;4.038;2023-02-23T07:00:14;97.70;;;44.27;;
14510;SDS011;7341;50.930;4.038;2023-02-23T07:02:41;101.97;;;45.27;;
14510;SDS011;7341;50.930;4.038;2023-02-23T07:05:09;96.10;;;44.87;;
14510;SDS011;7341;50.930;4.038;2023-02-23T07:07:37;96.50;;;44.23;;
14510;SDS011;7341;50.930;4.038;2023-02-23T07:10:05;94.43;;;43.80;;
14510;SDS011;7341;50.930;4.038;2023-02-23T07:12:34;101.00;;;46.47;;
14510;SDS011;7341;50.930;4.038;2023-02-23T07:15:00;98.47;;;45.83;;
14510;SDS011;7341;50.930;4.038;2023-02-23T07:17:27;92.87;;;46.00;;
14510;SDS011;7341;50.930;4.038;2023-02-23T07:19:54;99.87;;;46.37;;
14510;SDS011;7341;50.930;4.038;2023-02-23T07:22:21;97.33;;;46.07;;
14510;SDS011;7341;50.930;4.038;2023-02-23T07:24:51;102.30;;;46.90;;
14510;SDS011;7341;50.930;4.038;2023-02-23T07:27:18;96.30;;;44.33;;
14510;SDS011;7341;50.930;4.038;2023-02-23T07:29:46;96.57;;;46.03;;
14510;SDS011;7341;50.930;4.038;2023-02-23T07:32:13;93.87;;;44.13;;
14510;SDS011;7341;50.930;4.038;2023-02-23T07:34:40;94.57;;;45.80;;
14510;SDS011;7341;50.930;4.038;2023-02-23T07:37:07;84.73;;;42.37;;
14510;SDS011;7341;50.930;4.038;2023-02-23T07:39:33;93.90;;;45.77;;
14510;SDS011;7341;50.930;4.038;2023-02-23T07:42:00;92.50;;;42.93;;
14510;SDS011;7341;50.930;4.038;2023-02-23T07:44:27;85.27;;;43.30;;
14510;SDS011;7341;50.930;4.038;2023-02-23T07:46:55;85.77;;;41.90;;
14510;SDS011;7341;50.930;4.038;2023-02-23T07:49:22;86.10;;;43.77;;
14510;SDS011;7341;50.930;4.038;2023-02-23T07:51:49;91.90;;;45.13;;
14510;SDS011;7341;50.930;4.038;2023-02-23T07:54:16;84.10;;;42.57;;
14510;SDS011;7341;50.930;4.038;2023-02-23T07:56:42;99.40;;;58.47;;
14510;SDS011;7341;50.930;4.038;2023-02-23T07:59:09;84.13;;;45.50;;
14510;SDS011;7341;50.930;4.038;2023-02-23T08:01:36;84.73;;;43.77;;
14510;SDS011;7341;50.930;4.038;2023-02-23T08:04:04;80.83;;;41.97;;
14510;SDS011;7341;50.930;4.038;2023-02-23T08:06:31;78.83;;;41.73;;
14510;SDS011;7341;50.930;4.038;2023-02-23T08:09:01;77.23;;;40.73;;
14510;SDS011;7341;50.930;4.038;2023-02-23T08:11:29;77.97;;;41.70;;
14510;SDS011;7341;50.930;4.038;2023-02-23T08:13:56;71.03;;;39.47;;
14510;SDS011;7341;50.930;4.038;2023-02-23T08:16:24;79.37;;;42.03;;
14510;SDS011;7341;50.930;4.038;2023-02-23T08:18:52;78.63;;;41.70;;
14510;SDS011;7341;50.930;4.038;2023-02-23T08:21:20;71.47;;;38.93;;
14510;SDS011;7341;50.930;4.038;2023-02-23T08:23:47;75.07;;;41.50;;
14510;SDS011;7341;50.930;4.038;2023-02-23T08:26:13;74.40;;;39.63;;
14510;SDS011;7341;50.930;4.038;2023-02-23T08:28:41;71.73;;;40.17;;
14510;SDS011;7341;50.930;4.038;2023-02-23T08:31:10;69.03;;;38.90;;
14510;SDS011;7341;50.930;4.038;2023-02-23T08:33:37;72.57;;;39.63;;
14510;SDS011;7341;50.930;4.038;2023-02-23T08:36:04;77.70;;;40.17;;
14510;SDS011;7341;50.930;4.038;2023-02-23T08:38:33;77.70;;;40.53;;
14510;SDS011;7341;50.930;4.038;2023-02-23T08:41:01;71.33;;;39.77;;
14510;SDS011;7341;50.930;4.038;2023-02-23T08:43:29;70.93;;;39.27;;
14510;SDS011;7341;50.930;4.038;2023-02-23T08:45:56;68.30;;;39.40;;
14510;SDS011;7341;50.930;4.038;2023-02-23T08:48:23;70.20;;;38.90;;
14510;SDS011;7341;50.930;4.038;2023-02-23T08:50:54;64.83;;;36.33;;
14510;SDS011;7341;50.930;4.038;2023-02-23T08:53:21;65.30;;;37.70;;
14510;SDS011;7341;50.930;4.038;2023-02-23T08:55:54;65.30;;;38.03;;
14510;SDS011;7341;50.930;4.038;2023-02-23T08:58:22;68.37;;;39.07;;
14510;SDS011;7341;50.930;4.038;2023-02-23T09:00:49;69.57;;;39.40;;
14510;SDS011;7341;50.930;4.038;2023-02-23T09:03:17;65.97;;;37.63;;
14510;SDS011;7341;50.930;4.038;2023-02-23T09:05:44;71.53;;;47.13;;
14510;SDS011;7341;50.930;4.038;2023-02-23T09:08:12;65.63;;;39.87;;
14510;SDS011;7341;50.930;4.038;2023-02-23T09:10:40;62.93;;;37.93;;
14510;SDS011;7341;50.930;4.038;2023-02-23T09:13:12;64.97;;;37.27;;
14510;SDS011;7341;50.930;4.038;2023-02-23T09:15:40;62.10;;;36.27;;
14510;SDS011;7341;50.930;4.038;2023-02-23T09:18:09;58.43;;;35.20;;
14510;SDS011;7341;50.930;4.038;2023-02-23T09:20:39;60.80;;;34.37;;
14510;SDS011;7341;50.930;4.038;2023-02-23T09:23:07;63.23;;;38.03;;
14510;SDS011;7341;50.930;4.038;2023-02-23T09:25:38;65.37;;;37.30;;
14510;SDS011;7341;50.930;4.038;2023-02-23T09:28:08;65.27;;;37.40;;
14510;SDS011;7341;50.930;4.038;2023-02-23T09:30:37;63.07;;;35.93;;
14510;SDS011;7341;50.930;4.038;2023-02-23T09:33:05;63.27;;;37.63;;
14510;SDS011;7341;50.930;4.038;2023-02-23T09:35:33;59.30;;;35.97;;
14510;SDS011;7341;50.930;4.038;2023-02-23T09:38:00;61.97;;;36.67;;
14510;SDS011;7341;50.930;4.038;2023-02-23T09:40:29;68.27;;;48.10;;
14510;SDS011;7341;50.930;4.038;2023-02-23T09:43:03;59.37;;;38.03;;
14510;SDS011;7341;50.930;4.038;2023-02-23T09:45:35;57.37;;;36.40;;
14510;SDS011;7341;50.930;4.038;2023-02-23T09:48:11;54.73;;;35.13;;
14510;SDS011;7341;50.930;4.038;2023-02-23T09:50:43;55.77;;;34.53;;
14510;SDS011;7341;50.930;4.038;2023-02-23T09:53:18;51.90;;;32.40;;
14510;SDS011;7341;50.930;4.038;2023-02-23T09:56:03;49.33;;;31.77;;
14510;SDS011;7341;50.930;4.038;2023-02-23T09:58:35;48.53;;;31.13;;
14510;SDS011;7341;50.930;4.038;2023-02-23T10:04:04;50.03;;;32.07;;
14510;SDS011;7341;50.930;4.038;2023-02-23T10:06:36;49.30;;;31.97;;
14510;SDS011;7341;50.930;4.038;2023-02-23T10:09:10;51.47;;;32.53;;
14510;SDS011;7341;50.930;4.038;2023-02-23T10:11:44;54.37;;;33.10;;
14510;SDS011;7341;50.930;4.038;2023-02-23T10:14:34;52.13;;;33.73;;
14510;SDS011;7341;50.930;4.038;2023-02-23T10:17:26;48.23;;;29.97;;
14510;SDS011;7341;50.930;4.038;2023-02-23T10:20:01;44.67;;;29.33;;
14510;SDS011;7341;50.930;4.038;2023-02-23T10:22:34;48.60;;;29.83;;
14510;SDS011;7341;50.930;4.038;2023-02-23T10:25:03;43.77;;;29.50;;
14510;SDS011;7341;50.930;4.038;2023-02-23T10:27:37;44.73;;;28.93;;
14510;SDS011;7341;50.930;4.038;2023-02-23T10:30:12;43.57;;;28.10;;
14510;SDS011;7341;50.930;4.038;2023-02-23T10:32:46;42.37;;;27.70;;
14510;SDS011;7341;50.930;4.038;2023-02-23T10:35:19;46.43;;;30.03;;
14510;SDS011;7341;50.930;4.038;2023-02-23T10:37:47;46.77;;;30.00;;
14510;SDS011;7341;50.930;4.038;2023-02-23T10:40:16;49.40;;;29.27;;
14510;SDS011;7341;50.930;4.038;2023-02-23T10:42:47;42.60;;;27.47;;
14510;SDS011;7341;50.930;4.038;2023-02-23T10:45:15;42.53;;;28.43;;
14510;SDS011;7341;50.930;4.038;2023-02-23T10:47:48;41.70;;;28.30;;
14510;SDS011;7341;50.930;4.038;2023-02-23T10:50:17;43.27;;;28.20;;
14510;SDS011;7341;50.930;4.038;2023-02-23T10:52:47;47.27;;;29.20;;
14510;SDS011;7341;50.930;4.038;2023-02-23T10:55:19;44.73;;;27.73;;
14510;SDS011;7341;50.930;4.038;2023-02-23T10:57:49;46.53;;;29.50;;
14510;SDS011;7341;50.930;4.038;2023-02-23T11:00:26;43.37;;;28.23;;
14510;SDS011;7341;50.930;4.038;2023-02-23T11:02:59;48.27;;;30.97;;
14510;SDS011;7341;50.930;4.038;2023-02-23T11:05:32;47.40;;;30.53;;
14510;SDS011;7341;50.930;4.038;2023-02-23T11:08:08;46.40;;;29.13;;
14510;SDS011;7341;50.930;4.038;2023-02-23T11:10:36;46.90;;;31.13;;
14510;SDS011;7341;50.930;4.038;2023-02-23T11:13:03;50.63;;;32.70;;
14510;SDS011;7341;50.930;4.038;2023-02-23T11:15:31;49.63;;;32.73;;
14510;SDS011;7341;50.930;4.038;2023-02-23T11:18:01;49.27;;;31.43;;
14510;SDS011;7341;50.930;4.038;2023-02-23T11:20:29;52.33;;;33.77;;
14510;SDS011;7341;50.930;4.038;2023-02-23T11:23:00;51.33;;;32.80;;
14510;SDS011;7341;50.930;4.038;2023-02-23T11:25:28;46.97;;;31.67;;
14510;SDS011;7341;50.930;4.038;2023-02-23T11:27:58;47.07;;;30.37;;
14510;SDS011;7341;50.930;4.038;2023-02-23T11:30:27;46.33;;;28.83;;
14510;SDS011;7341;50.930;4.038;2023-02-23T11:33:12;42.73;;;28.30;;
14510;SDS011;7341;50.930;4.038;2023-02-23T11:35:41;44.80;;;29.50;;
14510;SDS011;7341;50.930;4.038;2023-02-23T11:38:14;44.53;;;29.47;;
14510;SDS011;7341;50.930;4.038;2023-02-23T11:40:57;46.47;;;28.57;;
14510;SDS011;7341;50.930;4.038;2023-02-23T11:43:25;40.20;;;27.33;;
14510;SDS011;7341;50.930;4.038;2023-02-23T11:45:53;39.67;;;26.87;;
14510;SDS011;7341;50.930;4.038;2023-02-23T11:48:24;38.53;;;26.63;;
14510;SDS011;7341;50.930;4.038;2023-02-23T11:50:53;43.67;;;27.77;;
14510;SDS011;7341;50.930;4.038;2023-02-23T11:53:23;46.40;;;34.70;;
14510;SDS011;7341;50.930;4.038;2023-02-23T11:55:54;41.20;;;28.87;;
14510;SDS011;7341;50.930;4.038;2023-02-23T11:58:33;40.57;;;27.83;;
14510;SDS011;7341;50.930;4.038;2023-02-23T12:01:03;39.57;;;26.70;;
14510;SDS011;7341;50.930;4.038;2023-02-23T12:03:38;37.13;;;25.37;;
14510;SDS011;7341;50.930;4.038;2023-02-23T12:06:11;38.97;;;26.20;;
14510;SDS011;7341;50.930;4.038;2023-02-23T12:08:51;39.13;;;25.93;;
14510;SDS011;7341;50.930;4.038;2023-02-23T12:11:23;38.83;;;26.20;;
14510;SDS011;7341;50.930;4.038;2023-02-23T12:13:54;39.63;;;25.77;;
14510;SDS011;7341;50.930;4.038;2023-02-23T12:16:26;42.57;;;25.60;;
14510;SDS011;7341;50.930;4.038;2023-02-23T12:19:00;40.13;;;25.33;;
14510;SDS011;7341;50.930;4.038;2023-02-23T12:21:33;40.07;;;25.43;;
14510;SDS011;7341;50.930;4.038;2023-02-23T12:24:09;42.53;;;26.73;;
14510;SDS011;7341;50.930;4.038;2023-02-23T12:26:43;38.03;;;24.30;;
14510;SDS011;7341;50.930;4.038;2023-02-23T12:29:17;42.50;;;27.83;;
14510;SDS011;7341;50.930;4.038;2023-02-23T12:31:48;46.40;;;32.60;;
14510;SDS011;7341;50.930;4.038;2023-02-23T12:34:21;43.43;;;28.20;;
14510;SDS011;7341;50.930;4.038;2023-02-23T12:36:54;46.17;;;27.43;;
14510;SDS011;7341;50.930;4.038;2023-02-23T12:39:27;46.83;;;27.57;;
14510;SDS011;7341;50.930;4.038;2023-02-23T12:41:58;45.33;;;27.17;;
14510;SDS011;7341;50.930;4.038;2023-02-23T12:44:32;46.37;;;28.57;;
14510;SDS011;7341;50.930;4.038;2023-02-23T12:47:06;44.73;;;27.50;;
14510;SDS011;7341;50.930;4.038;2023-02-23T12:49:42;47.50;;;27.27;;
14510;SDS011;7341;50.930;4.038;2023-02-23T12:52:11;49.97;;;34.28;;
14510;SDS011;7341;50.930;4.038;2023-02-23T12:54:42;44.97;;;28.43;;
14510;SDS011;7341;50.930;4.038;2023-02-23T12:57:13;44.13;;;27.20;;
14510;SDS011;7341;50.930;4.038;2023-02-23T12:59:54;47.23;;;28.70;;
14510;SDS011;7341;50.930;4.038;2023-02-23T13:02:57;47.17;;;28.03;;
14510;SDS011;7341;50.930;4.038;2023-02-23T13:05:43;46.30;;;27.40;;
14510;SDS011;7341;50.930;4.038;2023-02-23T13:08:18;48.53;;;28.30;;
14510;SDS011;7341;50.930;4.038;2023-02-23T13:10:53;42.70;;;27.37;;
14510;SDS011;7341;50.930;4.038;2023-02-23T13:13:29;41.63;;;27.20;;
14510;SDS011;7341;50.930;4.038;2023-02-23T13:16:02;43.23;;;27.53;;
14510;SDS011;7341;50.930;4.038;2023-02-23T13:18:34;44.07;;;26.20;;
14510;SDS011;7341;50.930;4.038;2023-02-23T13:21:10;43.43;;;25.27;;
14510;SDS011;7341;50.930;4.038;2023-02-23T13:23:48;40.33;;;26.70;;
14510;SDS011;7341;50.930;4.038;2023-02-23T13:26:26;43.93;;;25.60;;
14510;SDS011;7341;50.930;4.038;2023-02-23T13:31:36;38.03;;;23.97;;
14510;SDS011;7341;50.930;4.038;2023-02-23T13:34:07;40.45;;;31.02;;
14510;SDS011;7341;50.930;4.038;2023-02-23T13:36:38;38.37;;;25.37;;
14510;SDS011;7341;50.930;4.038;2023-02-23T13:39:14;34.80;;;23.03;;
14510;SDS011;7341;50.930;4.038;2023-02-23T13:41:56;36.53;;;22.90;;
14510;SDS011;7341;50.930;4.038;2023-02-23T13:44:34;35.27;;;22.57;;
14510;SDS011;7341;50.930;4.038;2023-02-23T13:47:09;35.03;;;21.83;;
14510;SDS011;7341;50.930;4.038;2023-02-23T13:49:45;32.37;;;20.17;;
14510;SDS011;7341;50.930;4.038;2023-02-23T13:52:21;29.63;;;20.13;;
14510;SDS011;7341;50.930;4.038;2023-02-23T13:54:53;34.13;;;21.13;;
14510;SDS011;7341;50.930;4.038;2023-02-23T13:57:27;30.23;;;20.10;;
14510;SDS011;7341;50.930;4.038;2023-02-23T13:59:54;35.60;;;21.87;;
14510;SDS011;7341;50.930;4.038;2023-02-23T14:02:33;28.50;;;18.93;;
14510;SDS011;7341;50.930;4.038;2023-02-23T14:05:03;31.23;;;19.37;;
14510;SDS011;7341;50.930;4.038;2023-02-23T14:07:37;29.23;;;20.30;;
14510;SDS011;7341;50.930;4.038;2023-02-23T14:10:07;29.17;;;18.63;;
14510;SDS011;7341;50.930;4.038;2023-02-23T14:12:41;31.67;;;18.90;;
14510;SDS011;7341;50.930;4.038;2023-02-23T14:15:28;33.17;;;24.05;;
14510;SDS011;7341;50.930;4.038;2023-02-23T14:21:10;29.73;;;18.30;;
14510;SDS011;7341;50.930;4.038;2023-02-23T14:23:50;26.80;;;18.73;;
14510;SDS011;7341;50.930;4.038;2023-02-23T14:26:35;28.00;;;17.80;;
14510;SDS011;7341;50.930;4.038;2023-02-23T14:29:08;30.23;;;18.63;;
14510;SDS011;7341;50.930;4.038;2023-02-23T14:31:56;27.13;;;18.93;;
14510;SDS011;7341;50.930;4.038;2023-02-23T14:37:18;26.20;;;17.33;;
14510;SDS011;7341;50.930;4.038;2023-02-23T14:39:51;24.97;;;16.83;;
14510;SDS011;7341;50.930;4.038;2023-02-23T14:42:22;25.97;;;17.23;;
14510;SDS011;7341;50.930;4.038;2023-02-23T14:44:51;23.77;;;16.37;;
14510;SDS011;7341;50.930;4.038;2023-02-23T14:47:19;29.87;;;17.83;;
14510;SDS011;7341;50.930;4.038;2023-02-23T14:49:49;21.77;;;15.80;;
14510;SDS011;7341;50.930;4.038;2023-02-23T14:52:20;26.17;;;17.53;;
14510;SDS011;7341;50.930;4.038;2023-02-23T14:54:49;24.23;;;16.23;;
14510;SDS011;7341;50.930;4.038;2023-02-23T14:57:29;27.08;;;20.52;;
14510;SDS011;7341;50.930;4.038;2023-02-23T15:00:05;22.93;;;16.83;;
14510;SDS011;7341;50.930;4.038;2023-02-23T15:02:33;21.87;;;15.37;;
14510;SDS011;7341;50.930;4.038;2023-02-23T15:05:12;21.83;;;15.10;;
14510;SDS011;7341;50.930;4.038;2023-02-23T15:07:40;22.20;;;15.60;;
14510;SDS011;7341;50.930;4.038;2023-02-23T15:10:13;24.97;;;15.80;;
14510;SDS011;7341;50.930;4.038;2023-02-23T15:12:45;21.47;;;14.87;;
14510;SDS011;7341;50.930;4.038;2023-02-23T15:15:15;22.77;;;15.37;;
14510;SDS011;7341;50.930;4.038;2023-02-23T15:17:44;20.97;;;14.80;;
14510;SDS011;7341;50.930;4.038;2023-02-23T15:20:13;18.10;;;13.00;;
14510;SDS011;7341;50.930;4.038;2023-02-23T15:22:44;19.40;;;12.47;;
14510;SDS011;7341;50.930;4.038;2023-02-23T15:25:16;18.33;;;13.20;;
14510;SDS011;7341;50.930;4.038;2023-02-23T15:27:45;19.90;;;13.77;;
14510;SDS011;7341;50.930;4.038;2023-02-23T15:30:16;18.33;;;13.00;;